createdAt,value
2022-09-13T00:01:38.008Z,21.00
2022-09-13T00:04:05.378Z,21.00
2022-09-13T00:06:32.789Z,21.00
2022-09-13T00:09:01.493Z,21.00
2022-09-13T00:11:31.208Z,21.00
2022-09-13T00:13:58.745Z,20.90
2022-09-13T00:16:28.378Z,20.90
2022-09-13T00:18:56.436Z,20.90
2022-09-13T00:21:24.682Z,20.90
2022-09-13T00:23:54.188Z,20.80
2022-09-13T00:26:27.001Z,20.80
2022-09-13T00:28:57.002Z,20.80
2022-09-13T00:31:26.461Z,20.80
2022-09-13T00:33:54.223Z,20.80
2022-09-13T00:36:21.657Z,20.70
2022-09-13T00:38:49.036Z,20.70
2022-09-13T00:41:19.315Z,20.60
2022-09-13T00:43:51.316Z,20.60
2022-09-13T00:46:45.359Z,20.50
2022-09-13T00:49:32.963Z,20.50
2022-09-13T00:52:07.350Z,20.50
2022-09-13T00:54:44.795Z,20.50
2022-09-13T00:57:14.492Z,20.40
2022-09-13T01:00:04.952Z,20.30
2022-09-13T01:02:32.584Z,20.20
2022-09-13T01:05:00.138Z,19.90
2022-09-13T01:07:27.821Z,19.70
2022-09-13T01:09:55.256Z,19.60
2022-09-13T01:12:45.353Z,19.70
2022-09-13T01:15:12.790Z,19.70
2022-09-13T01:17:40.532Z,19.80
2022-09-13T01:20:10.752Z,19.70
2022-09-13T01:23:16.176Z,19.30
2022-09-13T01:26:13.747Z,18.90
2022-09-13T01:29:19.244Z,18.90
2022-09-13T01:32:14.964Z,18.80
2022-09-13T01:34:50.847Z,18.70
2022-09-13T01:37:28.937Z,18.70
2022-09-13T01:40:21.666Z,18.70
2022-09-13T01:43:04.751Z,18.50
2022-09-13T01:46:10.150Z,18.30
2022-09-13T01:48:40.315Z,18.30
2022-09-13T01:51:26.184Z,18.20
2022-09-13T01:54:14.704Z,18.10
2022-09-13T01:57:23.577Z,18.40
2022-09-13T01:59:56.055Z,19.00
2022-09-13T02:02:39.397Z,19.20
2022-09-13T02:05:49.433Z,19.30
2022-09-13T02:08:19.350Z,19.30
2022-09-13T02:10:47.792Z,19.10
2022-09-13T02:13:19.592Z,18.90
2022-09-13T02:15:55.937Z,18.70
2022-09-13T02:18:37.324Z,18.80
2022-09-13T02:21:13.565Z,18.70
2022-09-13T02:23:50.269Z,18.50
2022-09-13T02:26:19.797Z,18.40
2022-09-13T02:28:54.740Z,18.40
2022-09-13T02:31:29.615Z,18.30
2022-09-13T02:34:24.612Z,18.20
2022-09-13T02:36:54.896Z,17.90
2022-09-13T02:39:27.174Z,17.80
2022-09-13T02:41:57.897Z,17.90
2022-09-13T02:44:36.344Z,18.00
2022-09-13T02:47:29.488Z,17.90
2022-09-13T02:50:30.946Z,17.90
2022-09-13T02:53:03.922Z,17.80
2022-09-13T02:55:53.253Z,17.80
2022-09-13T02:58:27.159Z,17.80
2022-09-13T03:00:55.893Z,17.70
2022-09-13T03:03:24.651Z,17.80
2022-09-13T03:05:53.511Z,17.70
2022-09-13T03:08:22.176Z,17.70
2022-09-13T03:10:52.862Z,17.60
2022-09-13T03:13:55.272Z,17.50
2022-09-13T03:16:44.727Z,17.70
2022-09-13T03:19:25.698Z,17.80
2022-09-13T03:22:28.681Z,17.80
2022-09-13T03:25:25.877Z,17.70
2022-09-13T03:28:20.541Z,17.90
2022-09-13T03:30:58.352Z,17.70
2022-09-13T03:33:39.392Z,17.40
2022-09-13T03:36:12.054Z,17.40
2022-09-13T03:38:46.140Z,17.40
2022-09-13T03:41:19.664Z,17.30
2022-09-13T03:44:00.805Z,17.20
2022-09-13T03:46:34.304Z,17.10
2022-09-13T03:49:06.985Z,17.00
2022-09-13T03:51:35.069Z,16.90
2022-09-13T03:54:07.578Z,16.90
2022-09-13T03:56:35.151Z,16.90
2022-09-13T03:59:02.553Z,16.90
2022-09-13T04:01:30.023Z,16.80
2022-09-13T04:03:57.468Z,16.90
2022-09-13T04:06:25.296Z,17.00
2022-09-13T04:08:52.675Z,16.90
2022-09-13T04:11:21.569Z,16.90
2022-09-13T04:13:48.996Z,17.00
2022-09-13T04:16:16.587Z,17.00
2022-09-13T04:18:44.089Z,16.90
2022-09-13T04:21:11.896Z,16.80
2022-09-13T04:23:39.294Z,16.90
2022-09-13T04:26:06.645Z,16.90
2022-09-13T04:28:34.018Z,16.90
2022-09-13T04:31:01.444Z,16.90
2022-09-13T04:33:28.877Z,17.30
2022-09-13T04:35:59.933Z,17.50
2022-09-13T04:38:27.639Z,17.50
2022-09-13T04:40:55.963Z,17.30
2022-09-13T04:43:23.698Z,17.10
2022-09-13T04:45:51.605Z,17.10
2022-09-13T04:48:19.158Z,16.90
2022-09-13T04:50:47.602Z,16.80
2022-09-13T04:53:15.039Z,16.80
2022-09-13T04:55:42.499Z,16.80
2022-09-13T04:58:09.996Z,16.90
2022-09-13T05:00:37.466Z,16.80
2022-09-13T05:03:04.867Z,16.90
2022-09-13T05:05:32.634Z,17.00
2022-09-13T05:08:00.062Z,17.00
2022-09-13T05:10:28.059Z,17.00
2022-09-13T05:12:55.699Z,17.20
2022-09-13T05:15:23.063Z,17.20
2022-09-13T05:17:50.443Z,17.20
2022-09-13T05:20:18.578Z,17.30
2022-09-13T05:22:45.945Z,17.30
2022-09-13T05:25:14.017Z,17.30
2022-09-13T05:27:41.426Z,17.30
2022-09-13T05:30:09.186Z,17.30
2022-09-13T05:32:36.632Z,17.40
2022-09-13T05:35:04.470Z,17.50
2022-09-13T05:37:31.940Z,17.60
2022-09-13T05:40:14.793Z,17.70
2022-09-13T05:42:42.222Z,17.90
2022-09-13T05:45:10.483Z,18.00
2022-09-13T05:47:38.034Z,18.20
2022-09-13T05:50:10.822Z,18.20
2022-09-13T05:52:41.029Z,18.30
2022-09-13T05:55:09.759Z,19.00
2022-09-13T05:57:37.681Z,19.60
2022-09-13T06:00:05.547Z,19.80
2022-09-13T06:02:39.746Z,19.90
2022-09-13T06:05:11.322Z,21.00
2022-09-13T06:07:42.521Z,21.50
2022-09-13T06:10:11.554Z,22.00
2022-09-13T06:12:38.983Z,22.60
2022-09-13T06:15:06.827Z,23.00
2022-09-13T06:17:34.227Z,24.30
2022-09-13T06:20:01.803Z,24.90
2022-09-13T06:22:33.184Z,25.30
2022-09-13T06:25:00.633Z,26.00
2022-09-13T06:27:30.021Z,26.50
2022-09-13T06:29:57.404Z,26.50
2022-09-13T06:32:25.263Z,27.00
2022-09-13T06:34:52.584Z,27.10
2022-09-13T06:37:20.087Z,27.00
2022-09-13T06:39:47.512Z,26.60
2022-09-13T06:42:14.983Z,26.90
2022-09-13T06:44:42.394Z,27.30
2022-09-13T06:47:09.886Z,27.20
2022-09-13T06:49:37.258Z,26.60
2022-09-13T06:52:04.703Z,27.30
2022-09-13T06:54:32.164Z,26.90
2022-09-13T06:56:59.681Z,25.60
2022-09-13T06:59:27.063Z,25.60
2022-09-13T07:01:54.459Z,26.00
2022-09-13T07:04:22.438Z,26.20
2022-09-13T07:06:50.351Z,26.10
2022-09-13T07:09:20.140Z,26.20
2022-09-13T07:11:49.658Z,25.30
2022-09-13T07:14:21.599Z,25.60
2022-09-13T07:16:49.269Z,26.40
2022-09-13T07:19:20.084Z,27.30
2022-09-13T07:21:49.773Z,27.50
2022-09-13T07:24:18.352Z,27.90
2022-09-13T07:26:46.794Z,28.70
2022-09-13T07:29:18.949Z,27.50
2022-09-13T07:31:50.723Z,26.50
2022-09-13T07:34:22.650Z,25.60
2022-09-13T07:36:50.537Z,25.30
2022-09-13T07:39:22.345Z,24.80
2022-09-13T07:41:51.548Z,24.80
2022-09-13T07:44:18.927Z,24.50
2022-09-13T07:46:46.327Z,24.10
2022-09-13T07:49:18.062Z,24.10
2022-09-13T07:51:45.830Z,24.10
2022-09-13T07:54:17.876Z,24.00
2022-09-13T07:56:45.763Z,23.90
2022-09-13T07:59:15.230Z,23.80
2022-09-13T08:01:48.615Z,23.90
2022-09-13T08:04:19.060Z,23.70
2022-09-13T08:06:46.969Z,23.70
2022-09-13T08:09:15.115Z,23.70
2022-09-13T08:11:45.350Z,23.90
2022-09-13T08:14:16.107Z,23.90
2022-09-13T08:16:43.706Z,24.00
2022-09-13T08:19:13.435Z,24.00
2022-09-13T08:21:42.478Z,24.00
2022-09-13T08:24:21.365Z,24.20
2022-09-13T08:26:49.472Z,24.20
2022-09-13T08:29:17.159Z,24.20
2022-09-13T08:31:45.073Z,24.10
2022-09-13T08:34:15.205Z,24.10
2022-09-13T08:36:43.239Z,24.10
2022-09-13T08:39:13.628Z,24.30
2022-09-13T08:41:48.280Z,24.30
2022-09-13T08:44:44.944Z,24.40
2022-09-13T08:47:43.013Z,24.30
2022-09-13T08:50:30.110Z,24.40
2022-09-13T08:53:23.806Z,24.50
2022-09-13T08:56:08.324Z,24.50
2022-09-13T08:58:54.891Z,24.50
2022-09-13T09:01:44.004Z,24.50
2022-09-13T09:04:30.529Z,24.50
2022-09-13T09:07:24.533Z,24.70
2022-09-13T09:10:03.129Z,24.80
2022-09-13T09:12:36.273Z,24.80
2022-09-13T09:15:16.123Z,24.90
2022-09-13T09:17:55.770Z,24.80
2022-09-13T09:20:28.447Z,24.80
2022-09-13T09:22:56.211Z,24.90
2022-09-13T09:25:26.780Z,24.80
2022-09-13T09:27:54.588Z,25.00
2022-09-13T09:30:22.126Z,24.70
2022-09-13T09:33:16.618Z,24.80
2022-09-13T09:36:07.249Z,24.70
2022-09-13T09:38:37.746Z,24.80
2022-09-13T09:41:12.794Z,24.80
2022-09-13T09:43:46.875Z,24.60
2022-09-13T09:46:15.645Z,24.80
2022-09-13T09:48:54.427Z,24.60
2022-09-13T09:51:25.775Z,24.80
2022-09-13T09:54:02.181Z,24.90
2022-09-13T09:56:33.766Z,25.00
2022-09-13T09:59:02.577Z,25.00
2022-09-13T10:01:37.187Z,24.80
2022-09-13T10:04:20.468Z,25.20
2022-09-13T10:06:49.822Z,25.10
2022-09-13T10:09:20.268Z,25.20
2022-09-13T10:11:59.610Z,25.20
2022-09-13T10:14:43.077Z,25.30
2022-09-13T10:17:21.702Z,25.20
2022-09-13T10:20:01.960Z,25.30
2022-09-13T10:22:31.209Z,25.20
2022-09-13T10:25:24.844Z,25.00
2022-09-13T10:27:55.440Z,25.00
2022-09-13T10:30:47.330Z,25.40
2022-09-13T10:33:27.119Z,25.70
2022-09-13T10:35:58.146Z,25.60
2022-09-13T10:38:32.695Z,25.50
2022-09-13T10:41:04.115Z,25.60
2022-09-13T10:43:32.511Z,25.50
2022-09-13T10:46:03.754Z,25.60
2022-09-13T10:48:43.911Z,25.60
2022-09-13T10:51:26.703Z,25.60
2022-09-13T10:54:23.255Z,25.50
2022-09-13T10:56:51.348Z,25.70
2022-09-13T10:59:30.060Z,25.80
2022-09-13T11:02:31.537Z,25.70
2022-09-13T11:05:16.262Z,25.70
2022-09-13T11:08:26.215Z,25.70
2022-09-13T11:11:34.119Z,25.90
2022-09-13T11:14:09.297Z,26.00
2022-09-13T11:16:46.234Z,25.90
2022-09-13T11:19:22.599Z,25.80
2022-09-13T11:22:15.452Z,25.50
2022-09-13T11:24:52.186Z,25.60
2022-09-13T11:27:22.615Z,25.50
2022-09-13T11:30:19.626Z,25.40
2022-09-13T11:32:54.795Z,25.40
2022-09-13T11:35:46.775Z,25.60
2022-09-13T11:38:26.158Z,25.70
2022-09-13T11:41:11.154Z,25.70
2022-09-13T11:44:02.791Z,25.80
2022-09-13T11:47:01.065Z,25.90
2022-09-13T11:50:01.048Z,25.90
2022-09-13T11:53:06.201Z,26.00
2022-09-13T11:55:49.546Z,25.90
2022-09-13T11:58:30.245Z,26.20
2022-09-13T12:01:02.370Z,26.20
2022-09-13T12:03:49.213Z,26.30
2022-09-13T12:06:33.882Z,26.40
2022-09-13T12:09:37.667Z,26.40
2022-09-13T12:12:06.519Z,26.10
2022-09-13T12:15:01.757Z,26.20
2022-09-13T12:17:42.068Z,26.20
2022-09-13T12:20:28.511Z,26.30
2022-09-13T12:22:59.856Z,26.30
2022-09-13T12:25:46.690Z,26.30
2022-09-13T12:28:27.309Z,26.40
2022-09-13T12:31:19.690Z,26.60
2022-09-13T12:33:47.799Z,26.80
2022-09-13T12:36:45.742Z,27.00
2022-09-13T12:39:33.941Z,26.90
2022-09-13T12:42:33.916Z,27.10
2022-09-13T12:45:16.485Z,26.80
2022-09-13T12:48:02.090Z,26.80
2022-09-13T12:50:55.983Z,26.80
2022-09-13T12:53:49.586Z,26.80
2022-09-13T12:56:16.945Z,26.80
2022-09-13T12:58:55.996Z,26.80
2022-09-13T13:01:24.917Z,26.90
2022-09-13T13:03:57.437Z,27.00
2022-09-13T13:06:35.673Z,27.20
2022-09-13T13:09:23.144Z,27.20
2022-09-13T13:11:54.525Z,27.10
2022-09-13T13:14:29.383Z,27.30
2022-09-13T13:17:36.217Z,27.40
2022-09-13T13:20:41.158Z,27.40
2022-09-13T13:23:29.864Z,27.40
2022-09-13T13:26:11.259Z,27.40
2022-09-13T13:28:44.908Z,27.40
2022-09-13T13:31:36.246Z,27.60
2022-09-13T13:34:06.518Z,27.60
2022-09-13T13:36:39.924Z,27.50
2022-09-13T13:39:40.703Z,27.50
2022-09-13T13:42:11.395Z,27.30
2022-09-13T13:44:38.770Z,27.40
2022-09-13T13:47:08.905Z,27.30
2022-09-13T13:49:39.478Z,27.40
2022-09-13T13:52:16.671Z,27.40
2022-09-13T13:54:49.774Z,27.50
2022-09-13T13:57:28.889Z,27.70
2022-09-13T14:00:20.872Z,27.60
2022-09-13T14:02:53.632Z,27.90
2022-09-13T14:05:46.182Z,27.80
2022-09-13T14:08:36.019Z,27.90
2022-09-13T14:11:11.178Z,27.60
2022-09-13T14:13:59.778Z,27.50
2022-09-13T14:17:08.607Z,27.60
2022-09-13T14:19:43.617Z,27.40
2022-09-13T14:22:15.494Z,27.60
2022-09-13T14:24:46.484Z,27.50
2022-09-13T14:27:26.955Z,27.50
2022-09-13T14:30:04.501Z,27.60
2022-09-13T14:32:42.309Z,27.40
2022-09-13T14:35:28.098Z,27.50
2022-09-13T14:37:57.403Z,27.80
2022-09-13T14:40:28.261Z,27.80
2022-09-13T14:42:56.580Z,27.70
2022-09-13T14:45:29.178Z,27.80
2022-09-13T14:48:23.658Z,27.90
2022-09-13T14:50:56.872Z,27.80
2022-09-13T14:53:34.339Z,27.80
2022-09-13T14:56:13.288Z,27.70
2022-09-13T14:58:46.282Z,27.80
2022-09-13T15:01:21.291Z,27.90
2022-09-13T15:03:49.587Z,28.00
2022-09-13T15:06:28.951Z,28.10
2022-09-13T15:09:11.686Z,28.30
2022-09-13T15:12:02.816Z,28.10
2022-09-13T15:14:35.678Z,28.00
2022-09-13T15:17:11.688Z,28.10
2022-09-13T15:19:45.201Z,28.20
2022-09-13T15:22:23.308Z,28.20
2022-09-13T15:25:02.302Z,28.30
2022-09-13T15:27:32.600Z,28.20
2022-09-13T15:30:03.597Z,28.10
2022-09-13T15:32:42.248Z,28.20
2022-09-13T15:35:35.303Z,28.00
2022-09-13T15:38:23.907Z,27.80
2022-09-13T15:41:14.879Z,27.70
2022-09-13T15:43:42.344Z,27.60
2022-09-13T15:46:15.120Z,27.30
2022-09-13T15:48:55.462Z,27.20
2022-09-13T15:51:23.317Z,27.20
2022-09-13T15:53:51.733Z,27.10
2022-09-13T15:56:22.609Z,26.90
2022-09-13T15:58:50.211Z,26.80
2022-09-13T16:01:18.446Z,26.60
2022-09-13T16:03:46.001Z,26.40
2022-09-13T16:06:13.551Z,26.20
2022-09-13T16:08:41.057Z,26.10
2022-09-13T16:11:08.464Z,25.90
2022-09-13T16:13:36.616Z,25.80
2022-09-13T16:16:07.322Z,25.60
2022-09-13T16:18:34.800Z,25.50
2022-09-13T16:21:02.265Z,25.40
2022-09-13T16:23:29.642Z,25.30
2022-09-13T16:25:58.916Z,25.20
2022-09-13T16:28:27.085Z,25.00
2022-09-13T16:30:54.810Z,25.00
2022-09-13T16:33:22.459Z,24.90
2022-09-13T16:35:49.865Z,25.20
2022-09-13T16:38:18.187Z,25.30
2022-09-13T16:40:45.672Z,25.50
2022-09-13T16:43:13.648Z,25.70
2022-09-13T16:45:41.650Z,26.00
2022-09-13T16:48:09.137Z,26.10
2022-09-13T16:50:40.282Z,26.30
2022-09-13T16:53:08.378Z,26.30
2022-09-13T16:55:36.221Z,26.40
2022-09-13T16:58:03.777Z,26.40
2022-09-13T17:00:31.331Z,26.40
2022-09-13T17:02:59.088Z,26.40
2022-09-13T17:05:26.811Z,26.30
2022-09-13T17:07:54.195Z,26.20
2022-09-13T17:10:21.704Z,26.30
2022-09-13T17:12:49.204Z,26.30
2022-09-13T17:15:16.690Z,26.30
2022-09-13T17:17:44.149Z,26.30
2022-09-13T17:20:13.344Z,26.20
2022-09-13T17:22:41.367Z,26.10
2022-09-13T17:25:09.381Z,26.10
2022-09-13T17:27:36.800Z,26.10
2022-09-13T17:30:05.234Z,26.10
2022-09-13T17:32:32.972Z,25.90
2022-09-13T17:35:01.008Z,26.00
2022-09-13T17:37:28.626Z,25.90
2022-09-13T17:39:56.167Z,25.80
2022-09-13T17:42:23.793Z,25.70
2022-09-13T17:44:51.296Z,25.60
2022-09-13T17:47:18.677Z,25.60
2022-09-13T17:49:47.699Z,25.40
2022-09-13T17:52:15.136Z,25.00
2022-09-13T17:54:42.778Z,24.90
2022-09-13T17:57:11.970Z,24.50
2022-09-13T17:59:39.321Z,24.70
2022-09-13T18:02:07.152Z,24.80
2022-09-13T18:04:34.556Z,24.80
2022-09-13T18:07:01.990Z,24.80
2022-09-13T18:09:29.435Z,24.80
2022-09-13T18:11:56.842Z,25.00
2022-09-13T18:14:26.516Z,24.90
2022-09-13T18:16:55.865Z,25.00
2022-09-13T18:19:44.376Z,25.00
2022-09-13T18:22:11.283Z,25.00
2022-09-13T18:24:38.749Z,25.00
2022-09-13T18:27:06.334Z,25.00
2022-09-13T18:29:33.746Z,25.00
2022-09-13T18:32:01.423Z,25.00
2022-09-13T18:34:28.859Z,25.00
2022-09-13T18:36:56.491Z,25.00
2022-09-13T18:39:23.963Z,24.90
2022-09-13T18:41:51.393Z,24.90
2022-09-13T18:44:19.248Z,24.90
2022-09-13T18:46:47.499Z,24.80
2022-09-13T18:49:15.278Z,24.80
2022-09-13T18:51:44.599Z,24.70
2022-09-13T18:54:17.724Z,24.70
2022-09-13T18:56:46.131Z,24.60
2022-09-13T18:59:13.923Z,24.60
2022-09-13T19:01:43.181Z,24.60
2022-09-13T19:04:13.467Z,24.60
2022-09-13T19:06:43.327Z,24.50
2022-09-13T19:09:11.348Z,24.40
2022-09-13T19:11:49.268Z,24.40
2022-09-13T19:14:28.549Z,24.30
2022-09-13T19:16:57.998Z,24.30
2022-09-13T19:19:25.459Z,24.30
2022-09-13T19:21:52.918Z,24.20
2022-09-13T19:24:21.266Z,24.20
2022-09-13T19:26:51.163Z,24.20
2022-09-13T19:29:21.185Z,24.20
2022-09-13T19:31:50.022Z,24.20
2022-09-13T19:34:19.532Z,24.10
2022-09-13T19:36:48.902Z,24.10
2022-09-13T19:39:16.555Z,24.10
2022-09-13T19:41:44.016Z,24.10
2022-09-13T19:44:13.092Z,24.10
2022-09-13T19:46:41.918Z,24.00
2022-09-13T19:49:13.059Z,24.00
2022-09-13T19:51:41.540Z,24.00
2022-09-13T19:54:12.436Z,24.00
2022-09-13T19:56:42.880Z,24.00
2022-09-13T19:59:15.201Z,24.00
2022-09-13T20:01:44.652Z,24.00
2022-09-13T20:04:17.860Z,24.00
2022-09-13T20:06:48.426Z,23.90
2022-09-13T20:11:45.540Z,23.50
2022-09-13T20:14:15.518Z,23.20
2022-09-13T20:16:43.970Z,23.20
2022-09-13T20:19:39.705Z,23.10
2022-09-13T20:22:08.897Z,22.90
2022-09-13T20:24:36.524Z,22.80
2022-09-13T20:27:04.577Z,22.80
2022-09-13T20:29:32.348Z,22.80
2022-09-13T20:32:00.297Z,22.80
2022-09-13T20:34:28.058Z,22.80
2022-09-13T20:36:55.650Z,22.80
2022-09-13T20:39:23.091Z,22.80
2022-09-13T20:41:50.619Z,22.70
2022-09-13T20:44:18.035Z,22.70
2022-09-13T20:46:45.630Z,22.70
2022-09-13T20:49:13.359Z,22.70
2022-09-13T20:51:41.152Z,22.70
2022-09-13T20:54:11.426Z,22.70
2022-09-13T20:56:38.954Z,22.70
2022-09-13T20:59:06.642Z,22.70
2022-09-13T21:01:34.374Z,22.80
2022-09-13T21:04:02.883Z,22.80
2022-09-13T21:06:35.902Z,22.80
2022-09-13T21:09:03.390Z,22.70
2022-09-13T21:11:33.965Z,22.70
2022-09-13T21:14:03.819Z,22.70
2022-09-13T21:16:39.719Z,22.70
2022-09-13T21:19:07.947Z,22.70
2022-09-13T21:21:38.350Z,22.70
2022-09-13T21:24:09.864Z,22.70
2022-09-13T21:26:42.079Z,22.70
2022-09-13T21:29:11.326Z,22.70
2022-09-13T21:31:39.547Z,22.70
2022-09-13T21:34:18.029Z,22.70
2022-09-13T21:36:46.195Z,22.70
2022-09-13T21:39:14.964Z,22.70
2022-09-13T21:41:43.454Z,22.70
2022-09-13T21:44:11.266Z,22.70
2022-09-13T21:46:40.015Z,22.60
2022-09-13T21:49:10.734Z,22.60
2022-09-13T21:51:42.527Z,22.70
2022-09-13T21:54:14.406Z,22.70
2022-09-13T21:56:45.037Z,22.70
2022-09-13T21:59:14.691Z,22.80
2022-09-13T22:01:46.218Z,22.80
2022-09-13T22:04:27.107Z,22.80
2022-09-13T22:06:55.079Z,22.80
2022-09-13T22:09:26.733Z,22.80
2022-09-13T22:11:54.595Z,22.80
2022-09-13T22:14:22.790Z,22.80
2022-09-13T22:16:52.780Z,22.80
2022-09-13T22:19:23.689Z,22.80
2022-09-13T22:21:55.443Z,22.70
2022-09-13T22:24:24.839Z,22.70
2022-09-13T22:26:54.151Z,22.80
2022-09-13T22:29:22.311Z,22.80
2022-09-13T22:31:51.379Z,22.80
2022-09-13T22:34:22.483Z,22.80
2022-09-13T22:36:50.213Z,22.70
2022-09-13T22:39:18.130Z,22.70
2022-09-13T22:41:45.841Z,22.70
2022-09-13T22:44:13.510Z,22.70
2022-09-13T22:46:46.048Z,22.60
2022-09-13T22:49:19.321Z,22.60
2022-09-13T22:51:47.889Z,22.70
2022-09-13T22:54:17.060Z,22.70
2022-09-13T22:56:45.352Z,22.60
2022-09-13T22:59:19.063Z,22.60
2022-09-13T23:01:46.778Z,22.60
2022-09-13T23:04:14.480Z,22.70
2022-09-13T23:06:43.929Z,22.60
2022-09-13T23:09:14.477Z,22.60
2022-09-13T23:11:42.150Z,22.60
2022-09-13T23:14:12.040Z,22.60
2022-09-13T23:16:42.433Z,22.60
2022-09-13T23:19:12.993Z,22.60
2022-09-13T23:21:41.925Z,22.60
2022-09-13T23:24:16.609Z,22.50
2022-09-13T23:26:44.851Z,22.50
2022-09-13T23:29:14.447Z,22.50
2022-09-13T23:31:43.207Z,22.50
2022-09-13T23:34:12.514Z,22.40
2022-09-13T23:36:41.950Z,22.20
2022-09-13T23:39:14.009Z,22.20
2022-09-13T23:41:41.406Z,22.00
2022-09-13T23:44:08.765Z,21.80
2022-09-13T23:46:36.158Z,21.80
2022-09-13T23:49:03.895Z,21.70
2022-09-13T23:51:31.472Z,21.70
2022-09-13T23:54:00.928Z,21.70
2022-09-13T23:56:30.418Z,21.70
2022-09-13T23:58:59.555Z,21.60
